Valle, AZ

3:39 PM MST on June 28, 2017 (GMT -0700)
Grand Canyon National Park | | Change Station
Active Advisory: Fire Weather Warning

Elev 6608 ft 35.95 °N, 112.15 °W | Updated 45 minutes ago

Clear
Clear
89 °F
Feels Like 89 °F
N
24
Wind Variable Wind from SW
Gusts 33 mph

Today
High -- | Low -- °F
--% Chance of Precip.
Yesterday
High -- | Low -- °F
Precip. -- in
Pressure 29.81 in
Visibility 10.0 miles
Clouds Clear
Dew Point 5 °F
Humidity 4%
Rainfall 0.00 in
Snow Depth Not available.
5:15 AM 7:48 PM
Waxing Crescent, 29% visible
METAR KGCN 282154Z 22021G29KT 10SM CLR 32/M15 A3009 RMK AO2 PK WND 23033/2110 SLP094 T03171150
Pressure 29.81 in
Visibility 10.0 miles
Clouds Clear
Dew Point 5 °F
Humidity 4%
Rainfall 0.00 in
Snow Depth Not available.
5:15 AM 7:48 PM
Waxing Crescent, 29% visible
METAR KGCN 282154Z 22021G29KT 10SM CLR 32/M15 A3009 RMK AO2 PK WND 23033/2110 SLP094 T03171150

Get Your Daily Forecast Email!

Thanks for signing up!

Be on the lookout for a verification email in your inbox.

You'll start receiving severe weather alerts in your inbox..

×

10-Day Weather Forecast

Almanac

Astronomy

Jun. 28, 2017 Rise Set
Actual Time
Civil Twilight
Nautical Twilight
Astronomical Twilight
Moon
Length of Visible Light
Length of Day
Tomorrow will be .
, % of the Moon is Illuminated

Today's Extremes

State Highs State Lows

Community

WunderPhotos

Category 6

Welcome to Category 6. This is the collective home for Weather Underground's featured writeups by Dr. Jeff Masters (right), Bob Henson (left), Chris Burt, and other regular contributors.

Nearby

Air Quality

  Air Quality AQ Index Pollutant
Not available.

Snow Depth

Station Depth Elevation

Earthquake Activity

City Distance Mag. Time & Date
Minimum magnitude displayed is 2.5.

Coastal Water Temperatures

Place Temperature

Stations

Nearby Weather Stations

Station Location Temp. Windchill Dew Point Humidity Wind Precip. Elev Updated Type
                   

Watches & Warnings

Fire Weather Warning
Issued: 3:45 AM MDT Jun. 28, 2017 – National Weather Service

... Red flag warning remains in effect from 11 am this morning to
8 PM MST this evening for strong winds and low relative humidity for the
Coconino Plateau and western Mogollon Rim...

* affected area... the Kaibab Plateau and Grand Canyon country.

* 20 foot wind... southwest 15 to 25 mph with gusts to 35 mph.

* Relative humidity... falling into the single digits midday
Wednesday through early Wednesday evening.

* Impacts... any fires that develop will likely spread rapidly.
Outdoor burning is not recommended.

Precautionary/preparedness actions...

A red flag warning means that critical fire weather conditions
are either occurring or are imminent. A combination of strong
winds and low relative humidities can contribute to extreme fire
behavior.

Please notify field crews of this red flag warning.